Time;durP1;ratioP1;P1;durP2;ratioP2;P2;SDS_P1;SDS_P2;PMS_P1;PMS_P2;Temp;Humidity;BMP_temperature;BMP_pressure;BME280_temperature;BME280_humidity;BME280_pressure;Samples;Min_cycle;Max_cycle;Signal;HPM_P1;HPM_P2
2021/12/10 00:08:44;;;;;;;6.50;3.08;;;3.70;99.90;;;;;;6744223;88;20666;-76
2021/12/10 00:18:52;;;;;;;6.72;2.78;;;3.60;99.90;;;;;;6737811;88;20325;-76
2021/12/10 00:29:01;;;;;;;6.53;3.10;;;3.60;99.90;;;;;;6745601;88;20298;-77
2021/12/10 00:39:09;;;;;;;5.70;2.50;;;3.40;99.90;;;;;;6744678;88;20177;-77
2021/12/10 00:49:09;;;;;;;6.00;2.30;;;3.40;99.90;;;;;;6743333;88;20177;-77
2021/12/10 00:59:12;;;;;;;5.45;2.80;;;3.40;99.90;;;;;;6741784;88;20205;-76
2021/12/10 01:09:16;;;;;;;5.78;2.58;;;3.60;99.90;;;;;;6748669;88;20201;-77
2021/12/10 01:29:43;;;;;;;3.75;1.00;;;3.70;99.90;;;;;;6740096;88;20235;-77
2021/12/10 01:39:45;;;;;;;5.55;1.45;;;4.00;99.90;;;;;;6739888;88;20204;-76
2021/12/10 01:49:46;;;;;;;6.05;1.50;;;4.20;99.90;;;;;;6741550;88;20704;-77
2021/12/10 01:59:48;;;;;;;6.87;1.27;;;4.20;99.90;;;;;;6736129;88;20220;-77
2021/12/10 02:09:49;;;;;;;3.62;1.12;;;4.30;99.90;;;;;;6744721;88;20310;-76
2021/12/10 02:19:49;;;;;;;6.43;1.20;;;4.60;99.90;;;;;;6742796;88;20326;-76
2021/12/10 02:29:50;;;;;;;4.15;1.10;;;4.40;99.90;;;;;;6737956;88;20701;-76
2021/12/10 02:39:51;;;;;;;3.62;0.98;;;4.40;99.90;;;;;;6745604;88;20198;-77
2021/12/10 02:49:52;;;;;;;6.93;1.73;;;4.30;99.90;;;;;;6755459;88;20679;-76
2021/12/10 02:59:53;;;;;;;7.45;1.10;;;4.20;99.90;;;;;;6748186;88;20219;-76
2021/12/10 03:09:55;;;;;;;4.87;0.82;;;4.10;99.90;;;;;;6751680;88;20202;-77
2021/12/10 03:19:56;;;;;;;5.15;1.08;;;4.10;99.90;;;;;;6741492;88;20216;-76
2021/12/10 03:29:56;;;;;;;3.35;0.90;;;4.00;99.90;;;;;;6744415;88;20187;-75
2021/12/10 03:39:57;;;;;;;3.95;0.62;;;4.00;99.90;;;;;;6742088;88;20189;-76
2021/12/10 03:49:57;;;;;;;3.30;0.82;;;4.00;99.90;;;;;;6734993;88;20210;-76
2021/12/10 03:59:58;;;;;;;7.40;1.48;;;4.00;99.90;;;;;;6743820;88;20631;-76
2021/12/10 04:09:59;;;;;;;7.25;1.90;;;4.00;99.90;;;;;;6737982;88;20185;-75
2021/12/10 04:20:00;;;;;;;8.40;2.07;;;4.00;99.90;;;;;;6743460;88;20180;-76
2021/12/10 04:30:01;;;;;;;9.00;1.92;;;4.10;99.90;;;;;;6745556;88;20615;-76
2021/12/10 04:40:03;;;;;;;6.35;1.85;;;4.00;99.90;;;;;;6744105;88;20188;-76
2021/12/10 04:50:06;;;;;;;7.32;1.60;;;3.90;99.90;;;;;;6749737;88;20674;-76
2021/12/10 05:00:11;;;;;;;4.95;1.60;;;3.90;99.90;;;;;;6743017;88;20606;-75
2021/12/10 05:10:13;;;;;;;4.60;1.60;;;3.70;99.90;;;;;;6740727;88;20166;-75
2021/12/10 05:20:19;;;;;;;6.45;1.80;;;3.70;99.90;;;;;;6736723;88;20176;-76
2021/12/10 05:30:23;;;;;;;3.17;1.17;;;3.60;99.90;;;;;;6745121;88;20957;-76
2021/12/10 05:40:24;;;;;;;8.40;1.83;;;3.50;99.90;;;;;;6754914;76;20343;-74
2021/12/10 05:50:28;;;;;;;8.52;1.62;;;3.50;99.90;;;;;;6742339;88;20248;-73
2021/12/10 06:00:32;;;;;;;4.68;1.67;;;3.40;99.90;;;;;;6743524;88;20224;-73
2021/12/10 06:10:34;;;;;;;7.47;1.50;;;3.40;99.90;;;;;;6742832;88;20205;-74
2021/12/10 06:20:43;;;;;;;5.15;1.02;;;3.50;99.90;;;;;;6746409;88;20324;-73
2021/12/10 06:30:46;;;;;;;7.43;1.35;;;3.50;99.90;;;;;;6741578;88;20193;-73
2021/12/10 06:40:46;;;;;;;3.97;0.75;;;3.50;99.90;;;;;;6748141;88;20205;-72
2021/12/10 06:50:50;;;;;;;4.53;0.75;;;3.40;99.90;;;;;;6752545;88;21120;-73
2021/12/10 07:00:55;;;;;;;5.62;1.30;;;3.50;99.90;;;;;;6739380;88;20677;-73
2021/12/10 07:10:56;;;;;;;3.10;0.80;;;3.40;99.90;;;;;;6735245;88;20205;-74
2021/12/10 07:20:57;;;;;;;5.22;1.10;;;3.50;99.90;;;;;;6738911;88;20347;-73
2021/12/10 07:30:58;;;;;;;3.55;1.10;;;3.50;99.90;;;;;;6743021;88;20220;-74
2021/12/10 07:40:59;;;;;;;3.67;1.05;;;3.60;99.90;;;;;;6766446;88;20187;-74
2021/12/10 07:51:06;;;;;;;4.22;1.00;;;3.60;99.90;;;;;;6732703;88;20173;-74
2021/12/10 08:01:10;;;;;;;7.47;1.08;;;3.60;99.90;;;;;;6740180;88;20870;-74
2021/12/10 08:11:12;;;;;;;6.05;1.30;;;3.60;99.90;;;;;;6725769;88;20484;-74
2021/12/10 08:21:12;;;;;;;3.90;1.30;;;3.60;99.90;;;;;;6734498;88;20205;-74
2021/12/10 08:31:15;;;;;;;7.10;1.73;;;3.70;99.90;;;;;;6730798;88;20242;-74
2021/12/10 08:41:29;;;;;;;5.97;1.35;;;3.60;99.90;;;;;;6728081;88;20723;-75
2021/12/10 08:51:33;;;;;;;5.55;1.62;;;3.60;99.90;;;;;;6722833;88;20233;-74
2021/12/10 09:01:39;;;;;;;9.95;2.00;;;3.50;99.90;;;;;;6725964;88;20722;-74
2021/12/10 09:11:44;;;;;;;3.63;1.27;;;3.50;99.90;;;;;;6722331;88;20311;-73
2021/12/10 09:21:45;;;;;;;5.68;1.70;;;3.50;99.90;;;;;;6726984;88;20261;-75
2021/12/10 09:31:46;;;;;;;5.43;1.67;;;3.60;99.90;;;;;;6729110;88;20253;-74
2021/12/10 09:41:49;;;;;;;5.87;1.62;;;3.50;99.90;;;;;;6726906;88;20323;-74
2021/12/10 09:51:54;;;;;;;5.93;1.98;;;3.90;99.90;;;;;;6729607;88;20471;-74
2021/12/10 10:01:57;;;;;;;9.23;2.28;;;3.80;99.90;;;;;;6731609;88;20233;-74
2021/12/10 10:12:03;;;;;;;7.03;1.80;;;3.90;99.90;;;;;;6733035;88;20350;-74
2021/12/10 10:22:07;;;;;;;7.43;1.85;;;4.00;99.90;;;;;;6734841;88;20226;-74
2021/12/10 10:32:13;;;;;;;5.50;1.80;;;4.10;99.90;;;;;;6734968;88;20220;-74
2021/12/10 10:42:17;;;;;;;6.28;1.90;;;4.20;99.90;;;;;;6728023;88;20188;-74
2021/12/10 10:52:29;;;;;;;4.25;1.75;;;4.20;99.90;;;;;;6732011;88;20212;-74
2021/12/10 11:02:40;;;;;;;4.35;1.30;;;4.30;99.90;;;;;;6730224;88;20641;-73
2021/12/10 11:12:42;;;;;;;9.45;1.62;;;4.30;99.90;;;;;;6733980;88;21146;-74
2021/12/10 11:22:49;;;;;;;4.55;1.45;;;4.30;99.90;;;;;;6733936;88;20240;-74
2021/12/10 11:32:54;;;;;;;5.43;2.10;;;4.40;99.90;;;;;;6738009;88;20318;-74
2021/12/10 11:43:00;;;;;;;5.95;1.62;;;4.60;99.90;;;;;;6738852;88;20196;-74
2021/12/10 11:53:10;;;;;;;3.33;1.33;;;4.40;99.90;;;;;;6729075;88;21139;-75
2021/12/10 12:03:11;;;;;;;6.97;1.80;;;4.40;99.90;;;;;;6730360;88;20188;-76
2021/12/10 12:34:00;;;;;;;4.55;1.40;;;4.30;99.90;;;;;;6735813;88;20228;-74
2021/12/10 12:44:26;;;;;;;5.22;1.60;;;4.20;99.90;;;;;;6727418;88;20617;-75
2021/12/10 12:54:27;;;;;;;3.05;1.58;;;4.10;99.90;;;;;;6729855;88;20225;-74
2021/12/10 13:04:38;;;;;;;4.47;1.62;;;4.00;99.90;;;;;;6724640;88;21147;-74
2021/12/10 13:14:50;;;;;;;4.80;1.40;;;4.00;99.90;;;;;;6730105;88;20216;-74
2021/12/10 13:24:56;;;;;;;5.18;1.77;;;3.90;99.90;;;;;;6734552;88;20324;-73
2021/12/10 13:34:57;;;;;;;5.83;1.93;;;3.90;99.90;;;;;;6731401;88;20225;-75
2021/12/10 13:44:58;;;;;;;4.55;1.90;;;4.00;99.90;;;;;;6730043;88;20672;-74
2021/12/10 13:54:58;;;;;;;5.00;1.85;;;4.00;99.90;;;;;;6730648;88;20255;-74
2021/12/10 14:05:16;;;;;;;5.87;2.90;;;3.90;99.90;;;;;;6735711;88;20245;-74
2021/12/10 14:15:46;;;;;;;6.57;2.00;;;4.00;99.90;;;;;;6732758;88;20220;-74
2021/12/10 14:25:56;;;;;;;8.20;2.58;;;4.10;99.90;;;;;;6733527;88;20205;-74
2021/12/10 14:36:14;;;;;;;5.25;1.85;;;4.00;99.90;;;;;;6735421;88;20319;-74
2021/12/10 14:46:32;;;;;;;3.35;1.70;;;4.00;99.90;;;;;;6732313;88;20632;-74
2021/12/10 14:56:47;;;;;;;4.90;2.10;;;4.10;99.90;;;;;;6739678;88;20220;-75
2021/12/10 15:07:05;;;;;;;4.62;2.20;;;3.90;99.90;;;;;;6736355;88;20192;-75
2021/12/10 15:17:16;;;;;;;4.93;2.20;;;3.80;99.90;;;;;;6741630;88;20237;-75
2021/12/10 15:27:33;;;;;;;5.90;2.92;;;3.80;99.90;;;;;;6765271;88;20606;-76
2021/12/10 15:37:35;;;;;;;6.35;3.30;;;3.60;99.90;;;;;;6757971;88;20967;-75
2021/12/10 15:47:36;;;;;;;6.50;3.00;;;3.60;99.90;;;;;;6754941;88;20271;-75
2021/12/10 15:57:42;;;;;;;7.05;3.25;;;3.50;99.90;;;;;;6748036;88;20335;-75
2021/12/10 16:07:45;;;;;;;7.60;3.17;;;3.40;99.90;;;;;;6720267;88;20189;-75
2021/12/10 16:17:46;;;;;;;8.55;4.05;;;3.30;99.90;;;;;;6737838;88;20422;-75
2021/12/10 16:27:52;;;;;;;10.10;4.15;;;3.10;99.90;;;;;;6740380;88;20234;-76
2021/12/10 16:37:55;;;;;;;10.17;5.00;;;3.00;99.90;;;;;;6744834;88;20200;-77
2021/12/10 16:47:56;;;;;;;9.23;4.95;;;3.00;99.90;;;;;;6740535;88;20362;-78
2021/12/10 16:58:03;;;;;;;9.82;4.90;;;2.90;99.90;;;;;;6738363;88;20279;-76
2021/12/10 17:08:06;;;;;;;;;;;2.80;99.90;;;;;;6732411;88;20638;-76
2021/12/10 17:18:13;;;;;;;11.23;5.43;;;3.00;99.90;;;;;;6735286;88;20098;-76
2021/12/10 17:28:15;;;;;;;10.38;5.45;;;3.10;99.90;;;;;;6732141;88;20240;-74
2021/12/10 17:38:17;;;;;;;9.13;5.30;;;3.00;99.90;;;;;;6741080;88;20273;-77
2021/12/10 17:48:18;;;;;;;9.52;5.80;;;3.10;99.90;;;;;;6742584;88;20185;-76
2021/12/10 17:58:25;;;;;;;11.73;6.70;;;2.90;99.90;;;;;;6741472;88;20202;-76
2021/12/10 18:08:29;;;;;;;14.48;7.43;;;3.00;99.90;;;;;;6743742;88;20692;-75
2021/12/10 18:18:37;;;;;;;14.27;8.30;;;2.90;99.90;;;;;;6738310;88;20354;-75
2021/12/10 18:28:42;;;;;;;13.75;7.37;;;3.10;99.90;;;;;;6739753;88;20693;-75
2021/12/10 18:38:51;;;;;;;13.52;7.80;;;3.10;99.90;;;;;;6731549;88;20293;-75
2021/12/10 18:48:54;;;;;;;16.50;9.55;;;2.80;99.90;;;;;;6735947;88;20668;-77
2021/12/10 18:59:00;;;;;;;15.40;8.73;;;2.70;99.90;;;;;;6736200;88;20687;-78
2021/12/10 19:09:14;;;;;;;16.40;9.13;;;2.90;99.90;;;;;;6735750;88;20173;-77
2021/12/10 19:19:23;;;;;;;15.48;8.75;;;3.40;99.90;;;;;;6732674;88;20714;-76
2021/12/10 19:29:30;;;;;;;15.30;8.63;;;3.30;99.90;;;;;;6736684;88;20264;-77
2021/12/10 19:39:41;;;;;;;15.73;9.25;;;3.20;99.90;;;;;;6737232;88;20917;-77
2021/12/10 19:49:54;;;;;;;14.30;8.73;;;3.30;99.90;;;;;;6736540;88;20233;-77
2021/12/10 20:00:16;;;;;;;16.85;8.73;;;3.30;99.90;;;;;;6738503;88;20218;-77
2021/12/10 20:10:51;;;;;;;15.07;9.07;;;3.30;99.90;;;;;;6733372;88;20300;-78
2021/12/10 20:21:17;;;;;;;15.18;8.98;;;3.10;99.90;;;;;;6729377;88;20211;-76
2021/12/10 20:31:28;;;;;;;21.37;12.10;;;3.00;99.90;;;;;;6730285;88;20194;-77
2021/12/10 20:41:35;;;;;;;21.08;10.55;;;3.00;99.90;;;;;;6737921;88;20196;-77
2021/12/10 20:51:45;;;;;;;;;;;3.30;99.90;;;;;;6735933;88;20361;-77
2021/12/10 21:01:51;;;;;;;15.55;10.02;;;3.10;99.90;;;;;;6739423;88;20054;-77
2021/12/10 21:12:00;;;;;;;21.67;11.13;;;3.10;99.90;;;;;;6738951;88;20256;-77
2021/12/10 21:22:10;;;;;;;18.92;10.75;;;3.00;99.90;;;;;;6740731;88;21572;-77
2021/12/10 21:32:28;;;;;;;21.00;10.88;;;3.00;99.90;;;;;;6741259;88;20267;-77
2021/12/10 21:42:37;;;;;;;19.42;10.82;;;2.90;99.90;;;;;;6741125;88;20184;-77
2021/12/10 21:52:42;;;;;;;22.92;11.93;;;2.80;99.90;;;;;;6741594;88;20251;-77
2021/12/10 22:02:49;;;;;;;19.48;11.95;;;2.90;99.90;;;;;;6746773;88;20193;-77
2021/12/10 22:12:53;;;;;;;24.20;13.10;;;3.00;99.90;;;;;;6745181;88;20176;-77
2021/12/10 22:22:54;;;;;;;22.60;12.60;;;2.90;99.90;;;;;;6744755;88;20319;-77
2021/12/10 22:33:03;;;;;;;24.92;13.48;;;3.00;99.90;;;;;;6748940;88;20218;-77
2021/12/10 22:43:12;;;;;;;24.73;14.02;;;2.90;99.90;;;;;;6747469;88;20320;-77
2021/12/10 22:53:21;;;;;;;29.90;14.93;;;2.90;99.90;;;;;;6738670;88;20201;-77
2021/12/10 23:03:38;;;;;;;25.62;14.00;;;2.70;99.90;;;;;;6738407;88;20202;-78
2021/12/10 23:13:45;;;;;;;29.45;15.20;;;2.50;99.90;;;;;;6739188;88;20728;-77
2021/12/10 23:24:23;;;;;;;29.17;15.02;;;2.50;99.90;;;;;;6741537;88;20166;-77
2021/12/10 23:34:23;;;;;;;30.52;16.37;;;2.60;99.90;;;;;;6735152;88;20218;-78
2021/12/10 23:44:46;;;;;;;26.35;14.23;;;2.60;99.90;;;;;;6745509;88;20572;-78
2021/12/10 23:54:51;;;;;;;29.55;14.90;;;2.50;99.90;;;;;;6739091;88;20329;-77
